Time;durP1;ratioP1;P1;durP2;ratioP2;P2;SDS_P1;SDS_P2;PMS_P1;PMS_P2;Temp;Humidity;BMP_temperature;BMP_pressure;BME280_temperature;BME280_humidity;BME280_pressure;Samples;Min_cycle;Max_cycle;Signal;HPM_P1;HPM_P2
2022/05/16 00:02:24;;;;;;;2.90;2.50;;;22.80;44.80;;;;;;5067103;28;20593;-44
2022/05/16 00:04:50;;;;;;;3.23;2.93;;;22.70;44.30;;;;;;5061233;28;20783;-44
2022/05/16 00:07:17;;;;;;;3.10;2.90;;;22.60;44.80;;;;;;5071231;28;20418;-44
2022/05/16 00:09:43;;;;;;;3.70;2.87;;;22.60;45.10;;;;;;5069466;28;20912;-44
2022/05/16 00:12:10;;;;;;;2.60;2.40;;;22.70;45.10;;;;;;5070797;28;20433;-44
2022/05/16 00:14:37;;;;;;;3.30;3.00;;;22.30;45.20;;;;;;5071019;28;20267;-43
2022/05/16 00:17:03;;;;;;;3.53;3.23;;;22.20;45.40;;;;;;5070590;28;20430;-44
2022/05/16 00:19:29;;;;;;;3.47;2.40;;;22.30;45.20;;;;;;5070857;28;20434;-45
2022/05/16 00:21:56;;;;;;;4.50;3.23;;;22.40;45.10;;;;;;5070360;28;20793;-46
2022/05/16 00:24:26;;;;;;;3.93;3.13;;;22.40;45.00;;;;;;5070839;28;20430;-47
2022/05/16 00:26:52;;;;;;;2.83;2.60;;;22.30;45.10;;;;;;5070281;28;20438;-44
2022/05/16 00:29:18;;;;;;;2.77;2.57;;;22.00;45.40;;;;;;5070523;28;20418;-42
2022/05/16 00:31:44;;;;;;;2.97;2.50;;;22.10;45.40;;;;;;5070251;28;20481;-45
2022/05/16 00:34:09;;;;;;;3.53;2.60;;;22.20;45.10;;;;;;5070951;28;20219;-46
2022/05/16 00:36:35;;;;;;;2.97;2.47;;;22.30;44.80;;;;;;5068690;28;20664;-43
2022/05/16 00:39:00;;;;;;;4.93;2.80;;;22.30;44.60;;;;;;5070387;28;20553;-45
2022/05/16 00:41:26;;;;;;;3.17;2.53;;;22.10;44.50;;;;;;5070061;28;20187;-44
2022/05/16 00:43:58;;;;;;;2.70;2.50;;;22.10;44.90;;;;;;5070844;28;20274;-43
2022/05/16 00:46:27;;;;;;;3.33;2.90;;;22.10;45.00;;;;;;5070304;28;20487;-43
2022/05/16 00:48:54;;;;;;;5.53;2.53;;;22.10;45.30;;;;;;5070188;28;20418;-43
2022/05/16 00:51:24;;;;;;;4.70;3.13;;;22.10;45.50;;;;;;5069630;28;20477;-44
2022/05/16 00:53:55;;;;;;;2.83;2.40;;;22.20;45.40;;;;;;5070028;28;21070;-43
2022/05/16 00:56:22;;;;;;;3.67;2.70;;;21.90;45.40;;;;;;5069682;28;20949;-45
2022/05/16 00:58:49;;;;;;;5.57;3.30;;;21.90;45.60;;;;;;5069792;28;20435;-42
2022/05/16 01:06:43;;;;;;;2.97;2.70;;;21.70;45.80;;;;;;5070193;28;20429;-43
2022/05/16 01:09:10;;;;;;;3.73;2.80;;;21.70;45.70;;;;;;5069706;28;20434;-45
2022/05/16 01:11:37;;;;;;;2.70;2.50;;;21.60;45.80;;;;;;5069346;28;20231;-45
2022/05/16 01:14:03;;;;;;;2.37;2.17;;;21.50;46.00;;;;;;5070300;28;20783;-45
2022/05/16 01:16:28;;;;;;;2.57;2.33;;;21.30;46.50;;;;;;5069992;28;20422;-43
2022/05/16 01:18:54;;;;;;;2.87;2.50;;;21.40;47.00;;;;;;5069784;28;20444;-45
2022/05/16 01:21:34;;;;;;;3.77;2.50;;;21.60;46.30;;;;;;5069503;28;20666;-47
2022/05/16 01:24:10;;;;;;;2.63;2.43;;;21.60;46.10;;;;;;5070173;28;20200;-44
2022/05/16 01:26:37;;;;;;;2.57;2.33;;;21.20;46.80;;;;;;5069508;28;20441;-43
2022/05/16 01:29:04;;;;;;;4.90;2.87;;;20.90;47.00;;;;;;5069471;28;20434;-47
2022/05/16 01:31:30;;;;;;;2.90;2.60;;;20.90;47.20;;;;;;5067589;28;20646;-46
2022/05/16 01:33:56;;;;;;;2.67;2.47;;;20.90;47.10;;;;;;5070155;28;20418;-47
2022/05/16 01:36:22;;;;;;;4.23;3.17;;;20.90;47.20;;;;;;5069493;28;20425;-46
2022/05/16 01:38:48;;;;;;;3.00;2.70;;;20.60;48.00;;;;;;5069393;28;20203;-44
2022/05/16 01:41:17;;;;;;;4.50;2.67;;;20.50;48.30;;;;;;5069482;28;20450;-45
2022/05/16 01:43:46;;;;;;;4.17;3.87;;;20.30;48.90;;;;;;5069985;28;20524;-45
2022/05/16 01:46:20;;;;;;;3.33;2.73;;;20.40;48.80;;;;;;5069365;28;20423;-43
2022/05/16 01:48:45;;;;;;;3.13;2.83;;;20.10;49.50;;;;;;5069285;28;20427;-44
2022/05/16 01:51:12;;;;;;;2.93;2.40;;;19.90;49.80;;;;;;5069363;28;20815;-42
2022/05/16 01:53:40;;;;;;;3.00;2.80;;;20.00;50.10;;;;;;5069873;28;20188;-43
2022/05/16 01:56:06;;;;;;;3.53;2.97;;;20.00;50.20;;;;;;5069310;28;20450;-43
2022/05/16 01:58:31;;;;;;;3.00;2.80;;;19.80;50.70;;;;;;5067800;28;20426;-43
2022/05/16 02:00:57;;;;;;;3.70;3.10;;;19.90;50.60;;;;;;5069072;28;20414;-44
2022/05/16 02:03:23;;;;;;;3.70;2.90;;;19.80;50.70;;;;;;5057257;28;20184;-44
2022/05/16 02:05:49;;;;;;;6.70;3.10;;;19.90;50.60;;;;;;5068928;28;20505;-44
2022/05/16 02:08:16;;;;;;;3.07;2.70;;;19.90;50.50;;;;;;5068366;28;20200;-44
2022/05/16 02:10:43;;;;;;;3.67;2.93;;;19.70;51.00;;;;;;5068812;28;20606;-43
2022/05/16 02:13:09;;;;;;;3.97;2.93;;;19.70;50.90;;;;;;5069473;28;20426;-44
2022/05/16 02:15:37;;;;;;;4.00;2.90;;;19.70;50.40;;;;;;5069145;28;20442;-44
2022/05/16 02:18:04;;;;;;;3.57;2.57;;;19.70;50.30;;;;;;5072618;28;20426;-42
2022/05/16 02:20:30;;;;;;;3.00;2.57;;;19.70;50.10;;;;;;5072551;28;20426;-42
2022/05/16 02:25:43;;;;;;;2.63;2.43;;;20.00;49.10;;;;;;5072191;28;20436;-42
2022/05/16 02:28:10;;;;;;;2.47;2.27;;;20.20;48.30;;;;;;5072928;28;20867;-44
2022/05/16 02:30:36;;;;;;;2.50;2.30;;;20.30;47.80;;;;;;5072067;28;20578;-44
2022/05/16 02:33:03;;;;;;;4.60;2.10;;;20.40;47.60;;;;;;5073119;28;20424;-44
2022/05/16 02:35:29;;;;;;;3.10;2.90;;;20.50;47.60;;;;;;5072548;28;20484;-45
2022/05/16 02:37:58;;;;;;;3.93;2.73;;;20.60;47.60;;;;;;5073183;28;20446;-43
2022/05/16 02:40:25;;;;;;;4.90;2.60;;;20.50;47.70;;;;;;5072190;28;20461;-42
2022/05/16 02:42:51;;;;;;;4.63;2.83;;;20.60;47.60;;;;;;5073014;28;20425;-45
2022/05/16 02:45:17;;;;;;;3.33;3.00;;;20.70;47.30;;;;;;5072656;28;20418;-44
2022/05/16 02:47:42;;;;;;;2.73;2.50;;;20.80;47.10;;;;;;5073131;28;20192;-42
2022/05/16 02:50:09;;;;;;;3.00;2.70;;;20.80;47.10;;;;;;5071303;28;20219;-42
2022/05/16 02:52:34;;;;;;;2.70;2.20;;;20.70;47.10;;;;;;5071827;28;20203;-44
2022/05/16 02:55:00;;;;;;;4.33;2.40;;;20.70;47.10;;;;;;5072154;28;20487;-44
2022/05/16 02:57:27;;;;;;;3.20;2.67;;;20.90;47.00;;;;;;5072494;28;20196;-42
2022/05/16 02:59:54;;;;;;;3.10;2.90;;;20.90;46.80;;;;;;5071546;28;20929;-46
2022/05/16 03:02:19;;;;;;;3.40;2.50;;;20.80;46.90;;;;;;5068744;28;20470;-44
2022/05/16 03:04:45;;;;;;;2.90;2.60;;;20.80;46.90;;;;;;5063522;28;20422;-42
2022/05/16 03:07:11;;;;;;;3.83;2.93;;;20.90;46.90;;;;;;5072095;28;20192;-46
2022/05/16 03:09:36;;;;;;;7.40;2.80;;;20.90;46.80;;;;;;5072059;28;20238;-45
2022/05/16 03:12:02;;;;;;;2.47;2.27;;;21.00;46.70;;;;;;5071694;28;20222;-47
2022/05/16 03:14:28;;;;;;;3.77;2.73;;;21.10;46.60;;;;;;5072402;28;20192;-44
2022/05/16 03:16:54;;;;;;;3.37;2.83;;;20.90;47.00;;;;;;5071430;28;20438;-44
2022/05/16 03:19:19;;;;;;;3.40;3.10;;;21.00;46.90;;;;;;5070474;28;20204;-47
2022/05/16 03:21:46;;;;;;;2.53;2.27;;;21.00;47.10;;;;;;5071861;28;20418;-44
2022/05/16 03:24:11;;;;;;;3.80;2.70;;;21.10;47.10;;;;;;5072349;28;20226;-46
2022/05/16 03:26:38;;;;;;;3.43;3.13;;;21.10;47.10;;;;;;5071776;28;21080;-43
2022/05/16 03:29:06;;;;;;;3.63;3.33;;;21.20;47.10;;;;;;5070273;28;20188;-45
2022/05/16 03:31:33;;;;;;;5.90;2.97;;;21.30;47.20;;;;;;5071376;28;20496;-47
2022/05/16 03:33:58;;;;;;;2.90;2.70;;;21.10;47.20;;;;;;5072070;28;20414;-43
2022/05/16 03:36:24;;;;;;;3.30;3.00;;;21.00;47.60;;;;;;5071504;28;20539;-44
2022/05/16 03:41:35;;;;;;;2.70;2.33;;;20.50;49.30;;;;;;5071423;28;20269;-43
2022/05/16 03:44:00;;;;;;;3.73;2.73;;;20.50;48.80;;;;;;5071189;28;20444;-43
2022/05/16 03:46:26;;;;;;;2.87;2.67;;;20.60;48.60;;;;;;5070352;28;20426;-44
2022/05/16 03:48:52;;;;;;;2.97;2.77;;;20.70;48.30;;;;;;5071263;28;20199;-44
2022/05/16 03:51:19;;;;;;;3.80;2.70;;;20.70;48.50;;;;;;5071355;28;20219;-45
2022/05/16 03:53:47;;;;;;;3.10;2.90;;;20.60;48.60;;;;;;5071695;28;20699;-44
2022/05/16 03:56:22;;;;;;;3.67;3.37;;;20.60;48.90;;;;;;5071191;28;20821;-45
2022/05/16 03:58:47;;;;;;;4.47;3.20;;;20.50;49.00;;;;;;5071072;28;20515;-43
2022/05/16 04:01:14;;;;;;;3.87;2.67;;;20.40;49.20;;;;;;5070986;28;20552;-44
2022/05/16 04:03:40;;;;;;;4.90;4.50;;;20.20;49.40;;;;;;5058832;28;20215;-45
2022/05/16 04:06:07;;;;;;;3.70;2.60;;;20.30;49.60;;;;;;5070752;28;20421;-45
2022/05/16 04:08:33;;;;;;;4.23;3.00;;;20.30;49.40;;;;;;5071013;28;20798;-46
2022/05/16 04:10:59;;;;;;;4.17;2.70;;;20.10;49.90;;;;;;5069957;28;20540;-46
2022/05/16 04:13:26;;;;;;;5.53;3.00;;;20.10;49.90;;;;;;5070561;28;20492;-43
2022/05/16 04:15:51;;;;;;;3.80;3.30;;;20.00;50.10;;;;;;5070362;28;20434;-45
2022/05/16 04:18:17;;;;;;;3.07;2.87;;;19.70;51.10;;;;;;5070967;28;20517;-43
2022/05/16 04:20:43;;;;;;;3.50;3.20;;;19.70;51.10;;;;;;5070707;28;20270;-43
2022/05/16 04:23:09;;;;;;;5.00;3.00;;;19.80;51.10;;;;;;5071082;28;20195;-46
2022/05/16 04:25:37;;;;;;;10.63;3.10;;;20.00;50.60;;;;;;5070380;28;20223;-43
2022/05/16 04:28:07;;;;;;;3.20;2.70;;;20.10;50.20;;;;;;5070769;28;20882;-46
2022/05/16 04:30:34;;;;;;;3.30;3.00;;;20.30;49.80;;;;;;5070197;28;20513;-45
2022/05/16 04:33:00;;;;;;;3.13;2.87;;;20.30;49.90;;;;;;5070959;28;20501;-43
2022/05/16 04:35:26;;;;;;;3.03;2.73;;;20.30;50.10;;;;;;5070143;28;20410;-47
2022/05/16 04:37:52;;;;;;;5.10;3.07;;;20.20;50.20;;;;;;5070329;28;20426;-43
2022/05/16 04:40:19;;;;;;;5.93;3.03;;;19.80;51.20;;;;;;5068417;28;20203;-42
2022/05/16 04:42:44;;;;;;;3.33;3.03;;;19.90;51.30;;;;;;5070863;28;20745;-47
2022/05/16 04:45:26;;;;;;;3.50;3.20;;;19.80;51.40;;;;;;5069987;28;20426;-42
2022/05/16 04:47:55;;;;;;;3.10;2.73;;;20.00;51.20;;;;;;5070570;28;20198;-47
2022/05/16 04:50:24;;;;;;;3.10;2.87;;;20.10;51.10;;;;;;5069781;28;20470;-45
2022/05/16 04:52:51;;;;;;;4.30;2.60;;;20.20;50.80;;;;;;5070057;28;20434;-43
2022/05/16 04:55:17;;;;;;;3.07;2.50;;;20.30;50.50;;;;;;5069963;28;20418;-43
2022/05/16 04:57:43;;;;;;;3.07;2.87;;;20.40;50.20;;;;;;5070520;28;20429;-43
2022/05/16 05:00:11;;;;;;;4.00;2.73;;;20.60;49.90;;;;;;5069573;28;20446;-45
2022/05/16 05:02:38;;;;;;;2.97;2.73;;;20.50;49.90;;;;;;5063975;28;21172;-43
2022/05/16 05:05:04;;;;;;;3.60;2.90;;;20.30;50.50;;;;;;5061569;28;21288;-42
2022/05/16 05:07:30;;;;;;;3.40;3.17;;;20.40;50.30;;;;;;5070334;28;20468;-43
2022/05/16 05:15:24;;;;;;;3.33;2.60;;;20.50;51.60;;;;;;5069527;28;20428;-47
2022/05/16 05:17:49;;;;;;;4.13;3.73;;;20.70;51.60;;;;;;5070135;28;21000;-44
2022/05/16 05:20:16;;;;;;;5.53;3.60;;;20.70;51.90;;;;;;5069328;28;20203;-43
2022/05/16 05:22:46;;;;;;;9.67;3.20;;;20.40;52.00;;;;;;5070392;28;20193;-43
2022/05/16 05:25:15;;;;;;;4.00;3.53;;;20.30;52.30;;;;;;5068251;28;20445;-42
2022/05/16 05:27:42;;;;;;;5.70;4.03;;;20.30;52.20;;;;;;5070315;28;20430;-43
2022/05/16 05:30:12;;;;;;;4.60;4.20;;;20.20;52.80;;;;;;5068975;28;20477;-45
2022/05/16 05:32:37;;;;;;;3.53;3.23;;;20.40;52.80;;;;;;5068242;28;20521;-46
2022/05/16 05:35:05;;;;;;;4.07;3.00;;;20.60;52.80;;;;;;5069587;28;20524;-43
2022/05/16 05:37:32;;;;;;;5.07;3.37;;;20.60;52.20;;;;;;5069930;28;20202;-44
2022/05/16 05:40:00;;;;;;;4.73;3.00;;;20.60;52.20;;;;;;5069215;28;20930;-46
2022/05/16 05:42:26;;;;;;;4.20;3.17;;;20.70;52.20;;;;;;5069917;28;20453;-44
2022/05/16 05:44:52;;;;;;;5.03;3.03;;;20.70;52.00;;;;;;5069281;28;20445;-42
2022/05/16 05:47:19;;;;;;;5.37;3.83;;;20.80;52.00;;;;;;5069628;28;20846;-43
2022/05/16 05:49:44;;;;;;;3.20;2.90;;;20.90;51.90;;;;;;5069508;28;20196;-43
2022/05/16 05:52:10;;;;;;;3.63;3.03;;;20.90;52.10;;;;;;5071755;28;20418;-43
2022/05/16 05:54:36;;;;;;;3.77;3.40;;;20.70;52.60;;;;;;5073958;28;20202;-43
2022/05/16 05:57:02;;;;;;;3.13;2.83;;;20.50;53.40;;;;;;5073156;28;20671;-42
2022/05/16 05:59:28;;;;;;;3.67;3.27;;;20.50;53.30;;;;;;5071956;28;20192;-43
2022/05/16 06:01:54;;;;;;;4.70;3.83;;;20.50;53.30;;;;;;5073003;28;20602;-43
2022/05/16 06:04:20;;;;;;;3.33;3.00;;;20.40;52.80;;;;;;5061108;28;20462;-45
2022/05/16 06:06:47;;;;;;;3.50;3.20;;;20.60;52.60;;;;;;5073079;28;20521;-46
2022/05/16 06:09:13;;;;;;;4.10;3.37;;;20.70;51.80;;;;;;5073645;28;20452;-43
2022/05/16 06:11:39;;;;;;;4.03;3.30;;;20.90;51.30;;;;;;5072858;28;20480;-43
2022/05/16 06:14:04;;;;;;;5.33;3.03;;;21.00;51.00;;;;;;5073688;28;20191;-45
2022/05/16 06:16:30;;;;;;;3.90;3.50;;;21.10;50.70;;;;;;5072859;28;20196;-44
2022/05/16 06:18:56;;;;;;;2.77;2.47;;;21.30;50.70;;;;;;5073168;28;20713;-44
2022/05/16 06:21:21;;;;;;;5.20;3.80;;;21.40;50.40;;;;;;5072970;28;20571;-44
2022/05/16 06:23:47;;;;;;;3.63;3.33;;;21.40;50.80;;;;;;5073679;28;20179;-43
2022/05/16 06:26:12;;;;;;;3.50;3.20;;;21.60;50.50;;;;;;5071218;28;20913;-43
2022/05/16 06:28:39;;;;;;;4.27;3.27;;;21.80;50.20;;;;;;5073177;28;20618;-43
2022/05/16 06:31:05;;;;;;;4.23;3.30;;;21.90;50.10;;;;;;5072935;28;20929;-42
2022/05/16 06:33:31;;;;;;;4.73;3.70;;;22.10;50.00;;;;;;5073334;28;20438;-43
2022/05/16 06:35:58;;;;;;;4.37;4.03;;;22.20;49.70;;;;;;5072436;28;20484;-44
2022/05/16 06:38:30;;;;;;;3.70;3.40;;;22.30;49.80;;;;;;5072781;28;20196;-43
2022/05/16 06:40:56;;;;;;;5.37;3.30;;;22.30;49.60;;;;;;5072639;28;20479;-43
2022/05/16 06:43:24;;;;;;;4.60;3.80;;;21.90;50.90;;;;;;5072744;28;20765;-45
2022/05/16 06:45:51;;;;;;;4.77;3.20;;;22.00;51.30;;;;;;5072407;28;20422;-45
2022/05/16 06:48:17;;;;;;;5.20;3.10;;;21.90;51.60;;;;;;5072484;28;20426;-44
2022/05/16 06:50:44;;;;;;;4.00;3.60;;;22.00;51.70;;;;;;5072284;28;20482;-43
2022/05/16 06:53:30;;;;;;;4.63;4.10;;;22.20;51.10;;;;;;5071152;28;20441;-44
2022/05/16 06:55:57;;;;;;;3.60;3.30;;;22.40;51.10;;;;;;5072342;28;20960;-43
2022/05/16 06:58:24;;;;;;;5.73;4.90;;;22.40;51.20;;;;;;5072545;28;20479;-42
2022/05/16 07:00:50;;;;;;;2.63;2.43;;;22.50;50.90;;;;;;5071798;28;20453;-44
2022/05/16 07:03:16;;;;;;;3.57;3.23;;;22.60;51.20;;;;;;5061024;28;20435;-43
2022/05/16 07:05:42;;;;;;;3.30;3.00;;;22.70;51.30;;;;;;5071202;28;20437;-45
2022/05/16 07:08:08;;;;;;;4.33;2.93;;;22.90;51.00;;;;;;5072220;28;20426;-43
2022/05/16 07:10:34;;;;;;;5.80;3.20;;;23.00;51.40;;;;;;5071671;28;20474;-43
2022/05/16 07:13:00;;;;;;;4.00;3.60;;;23.20;51.10;;;;;;5072765;28;20418;-44
2022/05/16 07:15:26;;;;;;;4.97;3.43;;;23.20;51.10;;;;;;5071786;28;20191;-44
2022/05/16 07:17:52;;;;;;;3.40;3.10;;;23.10;51.00;;;;;;5072543;28;20553;-43
2022/05/16 07:20:18;;;;;;;4.87;4.00;;;23.20;50.80;;;;;;5069698;28;20200;-43
2022/05/16 07:22:46;;;;;;;4.43;3.57;;;23.10;50.90;;;;;;5072691;28;20921;-47
2022/05/16 07:25:18;;;;;;;4.80;3.17;;;23.40;50.70;;;;;;5071974;28;20983;-43
2022/05/16 07:27:56;;;;;;;3.73;3.33;;;23.70;50.30;;;;;;5072429;28;21036;-44
2022/05/16 07:30:35;;;;;;;4.63;3.60;;;23.90;49.70;;;;;;5071038;28;20482;-43
2022/05/16 07:33:02;;;;;;;3.83;2.83;;;24.00;49.50;;;;;;5072201;28;20437;-43
2022/05/16 07:35:30;;;;;;;5.10;3.40;;;24.20;50.00;;;;;;5071708;28;20418;-44
2022/05/16 07:37:57;;;;;;;3.70;3.30;;;24.50;49.60;;;;;;5071867;28;20434;-45
2022/05/16 07:40:25;;;;;;;3.70;3.40;;;24.80;49.90;;;;;;5071368;28;20418;-42
2022/05/16 07:42:53;;;;;;;3.50;3.30;;;25.10;48.80;;;;;;5071792;28;20426;-43
2022/05/16 07:45:19;;;;;;;3.10;2.80;;;25.40;48.50;;;;;;5071350;28;20914;-44
2022/05/16 07:47:45;;;;;;;3.60;3.17;;;25.60;48.80;;;;;;5070491;28;20422;-43
2022/05/16 07:50:11;;;;;;;3.57;3.20;;;25.70;48.00;;;;;;5070858;28;20492;-43
2022/05/16 07:52:38;;;;;;;3.60;3.30;;;25.90;47.80;;;;;;5071767;28;20192;-43
2022/05/16 07:55:05;;;;;;;3.07;2.77;;;26.10;47.20;;;;;;5071207;28;20434;-44
2022/05/16 07:57:31;;;;;;;7.30;4.37;;;26.10;46.90;;;;;;5071386;28;20514;-46
2022/05/16 07:59:57;;;;;;;4.97;4.00;;;26.20;46.40;;;;;;5070586;28;20521;-43
2022/05/16 08:02:23;;;;;;;3.37;3.07;;;26.40;46.30;;;;;;5067467;28;20786;-43
2022/05/16 08:04:48;;;;;;;4.37;3.93;;;26.40;46.40;;;;;;5062296;28;20514;-44
2022/05/16 08:07:14;;;;;;;4.63;3.20;;;26.50;46.20;;;;;;5071406;28;20839;-44
2022/05/16 08:12:28;;;;;;;4.40;3.57;;;26.70;45.70;;;;;;5071345;28;20211;-43
2022/05/16 08:14:54;;;;;;;3.23;2.93;;;26.80;45.90;;;;;;5068416;28;20518;-44
2022/05/16 08:17:20;;;;;;;6.30;2.87;;;26.80;45.50;;;;;;5071265;28;20553;-43
2022/05/16 08:19:45;;;;;;;4.30;3.10;;;27.00;45.50;;;;;;5070628;28;20278;-44
2022/05/16 08:22:11;;;;;;;4.07;3.70;;;26.90;45.10;;;;;;5071013;28;20192;-43
2022/05/16 08:24:37;;;;;;;3.93;3.30;;;26.70;45.60;;;;;;5071063;28;20259;-43
2022/05/16 08:27:03;;;;;;;5.67;3.77;;;26.50;46.00;;;;;;5070368;28;20257;-43
2022/05/16 08:29:30;;;;;;;6.20;3.70;;;26.30;46.70;;;;;;5070777;28;20196;-44
2022/05/16 08:31:56;;;;;;;3.90;3.60;;;26.20;47.10;;;;;;5070708;28;20768;-46
2022/05/16 08:34:23;;;;;;;6.10;3.60;;;26.10;48.00;;;;;;5070999;28;20433;-44
2022/05/16 08:39:52;;;;;;;3.83;3.53;;;26.10;50.10;;;;;;5068830;28;20435;-45
2022/05/16 08:42:25;;;;;;;4.30;3.73;;;26.20;48.60;;;;;;5069643;28;20434;-47
2022/05/16 08:45:01;;;;;;;3.83;3.50;;;26.30;48.30;;;;;;5070269;28;20527;-44
2022/05/16 08:47:35;;;;;;;4.00;3.23;;;26.50;47.90;;;;;;5069004;28;20466;-44
2022/05/16 08:50:09;;;;;;;7.27;3.37;;;26.30;47.80;;;;;;5069558;28;20434;-43
2022/05/16 08:52:46;;;;;;;3.87;3.57;;;26.30;47.80;;;;;;5070559;28;20468;-44
2022/05/16 08:55:33;;;;;;;4.73;3.70;;;26.50;47.50;;;;;;5069989;28;20438;-44
2022/05/16 08:58:03;;;;;;;4.07;3.70;;;26.70;47.50;;;;;;5058457;28;20929;-47
2022/05/16 09:00:41;;;;;;;4.37;3.83;;;26.70;47.60;;;;;;5069742;28;20474;-43
2022/05/16 09:03:13;;;;;;;4.33;3.30;;;26.70;47.40;;;;;;5059852;28;20467;-43
2022/05/16 09:05:48;;;;;;;4.43;4.03;;;26.50;47.90;;;;;;5067663;28;20426;-44
2022/05/16 09:08:31;;;;;;;3.97;3.47;;;26.80;48.00;;;;;;5068375;28;20831;-45
2022/05/16 09:11:24;;;;;;;5.87;4.00;;;26.90;48.00;;;;;;5069741;28;20556;-46
2022/05/16 09:14:07;;;;;;;4.23;3.83;;;27.30;47.80;;;;;;5070244;28;20425;-43
2022/05/16 09:16:40;;;;;;;4.53;4.13;;;27.70;46.70;;;;;;5069403;28;20483;-47
2022/05/16 09:19:33;;;;;;;6.13;4.77;;;28.00;46.40;;;;;;5069814;28;20435;-45
2022/05/16 09:22:35;;;;;;;4.33;3.97;;;28.00;45.60;;;;;;5068323;28;21039;-45
2022/05/16 09:25:22;;;;;;;4.73;4.33;;;28.00;45.30;;;;;;5053195;28;20555;-44
2022/05/16 09:30:42;;;;;;;5.07;4.47;;;28.50;44.80;;;;;;5069772;28;20988;-43
2022/05/16 09:33:24;;;;;;;4.47;4.17;;;28.60;44.30;;;;;;5069828;28;21124;-43
2022/05/16 09:35:54;;;;;;;6.53;3.97;;;28.50;44.30;;;;;;5067534;28;20426;-45
2022/05/16 09:38:20;;;;;;;5.07;4.57;;;28.50;44.70;;;;;;5069437;28;20431;-43
2022/05/16 09:40:59;;;;;;;4.53;4.13;;;28.60;44.70;;;;;;5069364;28;20433;-44
2022/05/16 09:43:29;;;;;;;4.90;4.50;;;28.70;43.80;;;;;;5069952;28;20460;-46
2022/05/16 09:46:16;;;;;;;7.10;4.47;;;28.90;44.40;;;;;;5069390;28;20517;-43
2022/05/16 09:48:43;;;;;;;5.90;4.30;;;28.80;43.60;;;;;;5069616;28;21742;-44
2022/05/16 09:51:09;;;;;;;7.00;4.23;;;28.90;44.00;;;;;;5069134;28;20906;-45
2022/05/16 09:53:43;;;;;;;4.47;4.03;;;29.30;43.50;;;;;;5069744;28;20473;-44
2022/05/16 09:56:33;;;;;;;5.80;4.17;;;29.50;43.60;;;;;;5068821;28;20192;-48
2022/05/16 09:59:04;;;;;;;6.63;4.10;;;29.50;43.00;;;;;;5069303;28;20430;-47
2022/05/16 10:01:39;;;;;;;5.40;4.07;;;29.50;42.60;;;;;;5067201;28;20458;-48
2022/05/16 10:04:21;;;;;;;5.40;4.60;;;29.80;43.30;;;;;;5056558;28;20472;-47
2022/05/16 10:07:02;;;;;;;4.60;4.20;;;29.90;42.90;;;;;;5069099;28;20479;-49
2022/05/16 10:09:48;;;;;;;5.20;4.30;;;30.30;42.60;;;;;;5069377;28;20438;-47
2022/05/16 10:12:17;;;;;;;6.90;5.00;;;30.60;41.70;;;;;;5069711;28;20483;-48
2022/05/16 10:14:44;;;;;;;5.60;5.10;;;30.70;39.40;;;;;;5069719;28;20423;-46
2022/05/16 10:17:17;;;;;;;6.80;5.97;;;30.50;38.50;;;;;;5069100;28;20592;-45
2022/05/16 10:19:43;;;;;;;5.63;5.13;;;30.60;38.40;;;;;;5069763;28;20483;-48
2022/05/16 10:22:14;;;;;;;5.23;4.73;;;30.50;37.90;;;;;;5069517;28;20513;-47
2022/05/16 10:24:49;;;;;;;5.60;4.77;;;30.10;38.00;;;;;;5069610;28;20422;-49
2022/05/16 10:27:21;;;;;;;5.17;4.67;;;29.90;38.40;;;;;;5069955;28;20432;-48
2022/05/16 10:29:51;;;;;;;5.97;5.47;;;30.00;40.00;;;;;;5067506;28;20831;-44
2022/05/16 10:35:29;;;;;;;11.00;4.97;;;30.00;41.30;;;;;;5068659;28;20441;-46
2022/05/16 10:37:58;;;;;;;5.23;4.73;;;30.20;41.40;;;;;;5070395;28;20437;-47
2022/05/16 10:40:29;;;;;;;6.10;5.50;;;30.40;41.00;;;;;;5072700;28;20472;-45
2022/05/16 10:43:13;;;;;;;5.13;4.73;;;30.50;40.60;;;;;;5072887;28;20465;-48
2022/05/16 10:45:45;;;;;;;6.23;5.20;;;30.40;40.80;;;;;;5072458;28;20440;-48
2022/05/16 10:48:24;;;;;;;6.30;5.10;;;30.20;40.70;;;;;;5072695;28;20438;-45
2022/05/16 10:51:12;;;;;;;7.30;4.70;;;30.10;40.30;;;;;;5072334;28;20481;-45
2022/05/16 10:54:18;;;;;;;7.20;5.50;;;30.00;40.40;;;;;;5064370;28;20430;-45
2022/05/16 10:57:10;;;;;;;6.30;4.90;;;29.80;39.90;;;;;;5062896;28;20434;-44
2022/05/16 11:00:11;;;;;;;5.27;4.70;;;29.70;40.60;;;;;;5072670;28;20438;-46
2022/05/16 11:02:56;;;;;;;12.87;5.43;;;29.60;40.80;;;;;;5066464;28;20473;-46
2022/05/16 11:05:55;;;;;;;6.10;4.87;;;29.60;40.90;;;;;;5067752;28;20434;-44
2022/05/16 11:08:35;;;;;;;6.23;4.70;;;29.60;41.70;;;;;;5072322;28;20856;-49
2022/05/16 11:11:24;;;;;;;11.17;5.10;;;29.30;44.20;;;;;;5071928;28;20507;-45
2022/05/16 11:13:59;;;;;;;7.17;4.07;;;29.00;45.70;;;;;;5072269;28;20449;-48
2022/05/16 11:16:32;;;;;;;10.63;4.17;;;29.00;46.70;;;;;;5072037;28;20429;-44
2022/05/16 11:19:15;;;;;;;9.67;4.70;;;29.00;47.00;;;;;;5072149;28;20487;-46
2022/05/16 11:21:47;;;;;;;5.77;4.10;;;28.90;47.20;;;;;;5071993;28;20427;-43
2022/05/16 11:24:36;;;;;;;7.03;4.03;;;28.40;47.00;;;;;;5071185;28;20434;-45
2022/05/16 11:27:16;;;;;;;6.30;3.30;;;28.30;47.10;;;;;;5071872;28;20861;-46
2022/05/16 11:30:08;;;;;;;3.50;3.20;;;27.90;47.20;;;;;;5071909;28;20509;-47
2022/05/16 11:33:19;;;;;;;6.43;4.00;;;27.70;47.70;;;;;;5072304;28;20471;-44
2022/05/16 11:35:45;;;;;;;4.67;4.27;;;27.50;48.10;;;;;;5055436;28;20438;-47
2022/05/16 11:38:39;;;;;;;5.60;4.70;;;27.20;48.10;;;;;;5071660;28;20460;-48
2022/05/16 11:41:26;;;;;;;4.50;4.10;;;27.30;48.90;;;;;;5071500;28;20426;-47
2022/05/16 11:44:10;;;;;;;5.40;3.90;;;26.40;48.10;;;;;;5072087;28;20438;-45
2022/05/16 11:46:53;;;;;;;6.23;3.77;;;25.90;49.90;;;;;;5071393;28;20457;-44
2022/05/16 11:49:33;;;;;;;4.23;3.20;;;25.60;49.20;;;;;;5068387;28;20953;-45
2022/05/16 11:52:17;;;;;;;5.30;3.80;;;25.60;49.90;;;;;;5071423;28;20485;-44
2022/05/16 11:54:53;;;;;;;3.57;3.20;;;25.60;49.90;;;;;;5059842;28;20458;-43
2022/05/16 12:03:06;;;;;;;4.40;2.90;;;25.30;50.20;;;;;;5063731;28;20469;-46
2022/05/16 12:05:37;;;;;;;7.30;2.70;;;25.40;50.10;;;;;;5068335;28;20495;-47
2022/05/16 12:08:13;;;;;;;9.43;3.33;;;25.40;49.80;;;;;;5070922;28;20434;-45
2022/05/16 12:11:09;;;;;;;7.00;2.77;;;25.50;49.90;;;;;;5070765;28;20539;-44
2022/05/16 12:13:39;;;;;;;4.50;2.20;;;25.40;48.60;;;;;;5070252;28;20493;-46
2022/05/16 12:16:16;;;;;;;2.53;1.70;;;25.30;47.90;;;;;;5069331;28;20437;-48
2022/05/16 12:18:49;;;;;;;4.70;2.23;;;25.10;46.90;;;;;;5071281;28;20863;-45
2022/05/16 12:21:32;;;;;;;3.27;1.60;;;25.00;46.60;;;;;;5070735;28;20426;-46
2022/05/16 12:24:01;;;;;;;2.50;1.63;;;25.20;46.80;;;;;;5071446;28;20512;-43
2022/05/16 12:26:26;;;;;;;5.03;2.47;;;25.40;47.10;;;;;;5070442;28;20423;-43
2022/05/16 12:29:08;;;;;;;5.13;2.40;;;25.50;47.70;;;;;;5071116;28;20426;-44
2022/05/16 12:32:00;;;;;;;2.67;1.87;;;25.60;49.00;;;;;;5070222;28;20228;-43
2022/05/16 12:34:42;;;;;;;8.30;2.10;;;25.70;49.00;;;;;;5068714;28;20560;-45
2022/05/16 12:37:14;;;;;;;30.43;23.40;;;25.40;48.90;;;;;;5070427;28;20815;-47
2022/05/16 12:39:55;;;;;;;69.20;51.93;;;25.40;50.30;;;;;;5070477;28;20972;-46
2022/05/16 12:42:45;;;;;;;65.23;47.23;;;25.50;50.40;;;;;;5070651;28;20462;-44
2022/05/16 12:45:49;;;;;;;15.53;12.40;;;25.50;51.20;;;;;;5069421;28;21200;-45
2022/05/16 12:48:40;;;;;;;40.83;26.63;;;25.60;51.30;;;;;;5069455;28;20968;-45
2022/05/16 12:51:35;;;;;;;16.80;11.30;;;25.20;51.60;;;;;;5069928;28;20497;-44
2022/05/16 12:54:07;;;;;;;5.00;2.20;;;25.20;52.90;;;;;;5065166;28;20442;-45
2022/05/16 12:56:42;;;;;;;3.97;2.03;;;24.80;53.80;;;;;;5069895;28;20426;-43
2022/05/16 12:59:26;;;;;;;6.17;2.47;;;24.80;55.40;;;;;;5069801;28;20913;-43
2022/05/16 13:01:59;;;;;;;5.13;2.20;;;24.50;55.80;;;;;;5069635;28;20836;-43
2022/05/16 13:04:27;;;;;;;3.87;2.40;;;24.40;56.50;;;;;;5058553;28;20485;-45
2022/05/16 13:07:07;;;;;;;7.00;2.53;;;24.50;57.10;;;;;;5070050;28;20429;-44
2022/05/16 13:10:03;;;;;;;5.93;2.67;;;24.50;58.10;;;;;;5069757;28;20437;-45
2022/05/16 13:12:58;;;;;;;3.87;2.10;;;24.60;57.50;;;;;;5070412;28;20437;-44
2022/05/16 13:15:41;;;;;;;6.60;2.23;;;24.60;57.20;;;;;;5042788;28;20442;-47
2022/05/16 13:18:18;;;;;;;4.90;2.80;;;24.80;57.70;;;;;;5069584;28;20430;-43
2022/05/16 13:20:44;;;;;;;2.50;2.07;;;24.80;57.30;;;;;;5069954;28;20437;-47
2022/05/16 13:23:13;;;;;;;5.03;2.27;;;25.10;57.20;;;;;;5070210;28;20539;-43
2022/05/16 13:31:07;;;;;;;3.63;2.13;;;25.60;59.40;;;;;;5069502;28;20925;-43
2022/05/16 13:33:38;;;;;;;3.43;2.13;;;25.90;58.80;;;;;;5070110;28;20418;-43
2022/05/16 13:36:14;;;;;;;4.90;2.50;;;26.00;58.00;;;;;;5069505;28;20227;-43
2022/05/16 13:38:39;;;;;;;4.70;2.30;;;26.10;56.50;;;;;;5067706;28;20426;-44
2022/05/16 13:41:05;;;;;;;2.50;2.27;;;26.20;56.70;;;;;;5069606;28;20429;-43
2022/05/16 13:43:31;;;;;;;5.90;2.40;;;26.40;55.90;;;;;;5070093;28;20234;-44
2022/05/16 13:46:09;;;;;;;5.77;2.67;;;26.50;55.40;;;;;;5069493;28;20188;-43